Time;durP1;ratioP1;P1;durP2;ratioP2;P2;SDS_P1;SDS_P2;PMS_P1;PMS_P2;Temp;Humidity;BMP_temperature;BMP_pressure;BME280_temperature;BME280_humidity;BME280_pressure;Samples;Min_cycle;Max_cycle;Signal;HPM_P1;HPM_P2
2021/12/11 00:02:23;;;;;;;17.02;9.80;;;-0.90;99.90;;;;;;5061737;28;20237;-82
2021/12/11 00:04:56;;;;;;;16.25;9.75;;;-0.90;99.90;;;;;;5061702;28;20207;-80
2021/12/11 00:07:23;;;;;;;18.70;10.60;;;-0.90;99.90;;;;;;5062045;28;20297;-80
2021/12/11 00:09:55;;;;;;;20.50;10.70;;;-1.00;99.90;;;;;;5061236;28;20195;-80
2021/12/11 00:12:26;;;;;;;17.88;10.00;;;-0.90;99.90;;;;;;5061200;28;20245;-81
2021/12/11 00:14:58;;;;;;;18.10;11.20;;;-0.90;99.90;;;;;;5060699;28;20673;-80
2021/12/11 00:17:28;;;;;;;14.00;7.97;;;-0.90;99.90;;;;;;5061682;28;20210;-81
2021/12/11 00:19:56;;;;;;;19.48;10.30;;;-0.90;99.90;;;;;;5060545;28;20207;-81
2021/12/11 00:22:25;;;;;;;20.20;9.50;;;-0.90;99.90;;;;;;5060017;28;20229;-81
2021/12/11 00:24:59;;;;;;;17.63;10.18;;;-0.90;99.90;;;;;;5059262;28;20206;-80
2021/12/11 00:27:29;;;;;;;15.93;10.38;;;-0.90;99.90;;;;;;5060332;28;20672;-81
2021/12/11 00:29:57;;;;;;;18.00;10.43;;;-1.00;99.90;;;;;;5060581;28;20270;-80
2021/12/11 00:32:26;;;;;;;13.52;10.05;;;-1.00;99.90;;;;;;5060750;28;20635;-79
2021/12/11 00:34:55;;;;;;;13.52;9.43;;;-1.00;99.90;;;;;;5060914;28;20212;-81
2021/12/11 00:37:24;;;;;;;13.18;9.13;;;-1.00;99.90;;;;;;5059627;28;20204;-80
2021/12/11 00:39:55;;;;;;;17.58;9.88;;;-1.00;99.90;;;;;;5059687;28;20584;-81
2021/12/11 00:42:30;;;;;;;13.25;9.30;;;-1.00;99.90;;;;;;5059152;28;20310;-80
2021/12/11 00:44:59;;;;;;;13.45;8.70;;;-1.00;99.90;;;;;;5058784;28;20219;-82
2021/12/11 00:47:28;;;;;;;13.88;8.65;;;-1.10;99.90;;;;;;5059223;28;20204;-80
2021/12/11 00:49:58;;;;;;;16.00;10.07;;;-1.10;99.90;;;;;;5059527;28;20277;-80
2021/12/11 00:52:31;;;;;;;17.55;10.88;;;-1.10;99.90;;;;;;5058858;28;20294;-79
2021/12/11 00:55:00;;;;;;;12.82;9.43;;;-1.10;99.90;;;;;;5059802;28;20223;-80
2021/12/11 00:57:27;;;;;;;12.90;8.63;;;-1.10;99.90;;;;;;5059529;28;20209;-79
2021/12/11 01:00:08;;;;;;;17.27;9.52;;;-1.10;99.90;;;;;;5058981;28;20690;-79
2021/12/11 01:02:35;;;;;;;16.05;9.07;;;-1.10;99.90;;;;;;5054638;28;20310;-81
2021/12/11 01:05:04;;;;;;;11.52;8.73;;;-1.10;99.90;;;;;;5059811;28;20209;-81
2021/12/11 01:07:33;;;;;;;11.85;7.40;;;-1.10;99.90;;;;;;5059516;28;20204;-81
2021/12/11 01:10:07;;;;;;;9.65;8.25;;;-1.10;99.90;;;;;;5059186;28;20207;-78
2021/12/11 01:12:42;;;;;;;23.17;9.65;;;-1.10;99.90;;;;;;5058232;28;20317;-81
2021/12/11 01:15:14;;;;;;;20.83;10.82;;;-1.20;99.90;;;;;;5058677;28;20293;-80
2021/12/11 01:17:48;;;;;;;14.75;9.65;;;-1.20;99.90;;;;;;5058267;28;20216;-80
2021/12/11 01:20:20;;;;;;;19.58;10.15;;;-1.20;99.90;;;;;;5059049;28;20212;-81
2021/12/11 01:22:48;;;;;;;15.15;10.75;;;-1.20;99.90;;;;;;5058315;28;20227;-82
2021/12/11 01:25:19;;;;;;;15.60;9.45;;;-1.20;99.90;;;;;;5058967;28;20209;-81
2021/12/11 01:27:50;;;;;;;15.60;9.50;;;-1.20;99.90;;;;;;5058685;28;20209;-81
2021/12/11 01:30:24;;;;;;;12.63;8.18;;;-1.20;99.90;;;;;;5053466;28;20199;-81
2021/12/11 01:32:51;;;;;;;16.30;10.00;;;-1.20;99.90;;;;;;5057981;28;20218;-82
2021/12/11 01:35:19;;;;;;;14.98;10.10;;;-1.30;99.90;;;;;;5058380;28;20585;-80
2021/12/11 01:37:47;;;;;;;12.43;8.98;;;-1.30;99.90;;;;;;5058046;28;20197;-80
2021/12/11 01:40:20;;;;;;;15.38;9.57;;;-1.30;99.90;;;;;;5058216;28;20213;-81
2021/12/11 01:42:48;;;;;;;12.05;8.90;;;-1.30;99.90;;;;;;5059179;28;20218;-80
2021/12/11 01:45:17;;;;;;;11.90;9.10;;;-1.30;99.90;;;;;;5059518;28;20206;-79
2021/12/11 01:47:47;;;;;;;12.18;8.30;;;-1.30;99.90;;;;;;5058722;28;20207;-81
2021/12/11 01:50:18;;;;;;;17.65;8.98;;;-1.30;99.90;;;;;;5064927;28;20210;-81
2021/12/11 01:52:49;;;;;;;15.57;9.93;;;-1.30;99.90;;;;;;5068998;28;20225;-78
2021/12/11 01:55:29;;;;;;;13.43;9.95;;;-1.30;99.90;;;;;;5060607;28;20216;-80
2021/12/11 01:57:57;;;;;;;17.83;10.35;;;-1.30;99.90;;;;;;5058552;28;20194;-83
2021/12/11 02:00:31;;;;;;;13.05;9.50;;;-1.40;99.90;;;;;;5058146;28;20218;-79
2021/12/11 02:03:03;;;;;;;16.42;8.50;;;-1.40;99.90;;;;;;5059573;28;20236;-81
2021/12/11 02:05:32;;;;;;;12.88;8.45;;;-1.40;99.90;;;;;;5059713;28;20216;-83
2021/12/11 02:08:03;;;;;;;13.23;8.73;;;-1.40;99.90;;;;;;5059487;28;20269;-79
2021/12/11 02:10:35;;;;;;;13.70;8.32;;;-1.30;99.90;;;;;;5059745;28;20276;-81
2021/12/11 02:13:06;;;;;;;14.07;8.82;;;-1.30;99.90;;;;;;5060164;28;20305;-81
2021/12/11 02:15:38;;;;;;;14.77;8.85;;;-1.40;99.90;;;;;;5068248;28;20204;-80
2021/12/11 02:18:10;;;;;;;11.90;8.18;;;-1.40;99.90;;;;;;5074130;28;20261;-83
2021/12/11 02:20:43;;;;;;;15.32;10.63;;;-1.40;99.90;;;;;;5066777;28;20272;-82
2021/12/11 02:23:13;;;;;;;11.70;8.05;;;-1.40;99.90;;;;;;5061191;28;20310;-81
2021/12/11 02:25:46;;;;;;;15.57;8.35;;;-1.40;99.90;;;;;;5060538;28;20268;-82
2021/12/11 02:28:17;;;;;;;23.98;9.20;;;-1.40;99.90;;;;;;5059739;28;20231;-81
2021/12/11 02:30:48;;;;;;;15.57;8.27;;;-1.40;99.90;;;;;;5059726;28;20203;-80
2021/12/11 02:33:18;;;;;;;13.85;9.13;;;-1.40;99.90;;;;;;5059708;28;20322;-82
2021/12/11 02:35:52;;;;;;;15.38;9.80;;;-1.50;99.90;;;;;;5059596;28;20213;-81
2021/12/11 02:38:29;;;;;;;17.73;8.98;;;-1.40;99.90;;;;;;5058809;28;20210;-82
2021/12/11 02:41:01;;;;;;;18.20;8.40;;;-1.50;99.90;;;;;;5057535;28;20208;-82
2021/12/11 02:43:37;;;;;;;16.20;9.20;;;-1.50;99.90;;;;;;5058385;28;20214;-81
2021/12/11 02:46:10;;;;;;;14.38;9.50;;;-1.60;99.90;;;;;;5058898;28;20229;-82
2021/12/11 02:48:40;;;;;;;14.57;9.23;;;-1.50;99.90;;;;;;5058396;28;20614;-80
2021/12/11 02:51:13;;;;;;;14.00;9.05;;;-1.50;99.90;;;;;;5057646;28;20205;-80
2021/12/11 02:53:47;;;;;;;12.77;9.18;;;-1.50;99.90;;;;;;5056872;28;20235;-82
2021/12/11 02:56:21;;;;;;;13.30;8.30;;;-1.40;99.90;;;;;;5056862;28;20307;-80
2021/12/11 02:58:52;;;;;;;14.88;9.18;;;-1.40;99.90;;;;;;5057351;28;20216;-81
2021/12/11 03:01:25;;;;;;;12.57;9.35;;;-1.50;99.90;;;;;;5056867;28;20208;-81
2021/12/11 03:04:00;;;;;;;12.88;9.15;;;-1.50;99.90;;;;;;5057901;28;20210;-81
2021/12/11 03:06:36;;;;;;;20.65;9.10;;;-1.40;99.90;;;;;;5057457;28;20204;-81
2021/12/11 03:09:07;;;;;;;12.52;8.98;;;-1.40;99.90;;;;;;5061174;28;20252;-84
2021/12/11 03:11:33;;;;;;;13.18;9.75;;;-1.40;99.90;;;;;;5061085;28;20716;-79
2021/12/11 03:14:03;;;;;;;13.30;8.27;;;-1.50;99.90;;;;;;5061344;28;20230;-80
2021/12/11 03:16:33;;;;;;;14.45;8.70;;;-1.50;99.90;;;;;;5061352;28;20666;-80
2021/12/11 03:19:02;;;;;;;15.18;9.32;;;-1.50;99.90;;;;;;5061583;28;20212;-78
2021/12/11 03:21:29;;;;;;;13.68;9.10;;;-1.50;99.90;;;;;;5061209;28;20305;-81
2021/12/11 03:23:57;;;;;;;12.40;8.85;;;-1.50;99.90;;;;;;5061648;28;20202;-80
2021/12/11 03:26:26;;;;;;;16.83;10.32;;;-1.50;99.90;;;;;;5061394;28;20201;-80
2021/12/11 03:28:53;;;;;;;12.48;9.05;;;-1.50;99.90;;;;;;5061146;28;20213;-79
2021/12/11 03:31:21;;;;;;;11.90;7.55;;;-1.50;99.90;;;;;;5060762;28;20208;-81
2021/12/11 03:33:52;;;;;;;13.57;9.20;;;-1.50;99.90;;;;;;5061393;28;20572;-80
2021/12/11 03:36:22;;;;;;;15.18;8.77;;;-1.60;99.90;;;;;;5060364;28;20202;-80
2021/12/11 03:38:52;;;;;;;13.45;8.50;;;-1.60;99.90;;;;;;5060332;28;20205;-80
2021/12/11 03:41:21;;;;;;;16.88;9.07;;;-1.60;99.90;;;;;;5039891;28;20212;-79
2021/12/11 03:43:49;;;;;;;10.82;8.05;;;-1.60;99.90;;;;;;5041311;28;20289;-79
2021/12/11 03:46:17;;;;;;;12.55;8.45;;;-1.60;99.90;;;;;;5059913;28;20208;-80
2021/12/11 03:48:47;;;;;;;13.05;8.35;;;-1.50;99.90;;;;;;5062613;28;20219;-79
2021/12/11 03:51:18;;;;;;;18.58;9.85;;;-1.60;99.90;;;;;;5065143;28;20206;-81
2021/12/11 03:53:45;;;;;;;12.48;9.50;;;-1.50;99.90;;;;;;5064206;28;20686;-80
2021/12/11 03:56:14;;;;;;;14.73;9.38;;;-1.50;99.90;;;;;;5062675;28;20208;-79
2021/12/11 03:58:48;;;;;;;14.70;9.38;;;-1.50;99.90;;;;;;5062566;28;20202;-81
2021/12/11 04:01:23;;;;;;;22.50;13.70;;;-1.40;99.90;;;;;;5061926;28;20288;-82
2021/12/11 04:03:51;;;;;;;24.92;13.00;;;-1.20;99.90;;;;;;5062019;28;20206;-80
2021/12/11 04:06:19;;;;;;;27.63;13.27;;;-1.00;99.90;;;;;;5062328;28;20199;-81
2021/12/11 04:08:47;;;;;;;21.73;12.88;;;-0.90;99.90;;;;;;5062002;28;20202;-80
2021/12/11 04:11:17;;;;;;;32.47;16.25;;;-0.90;99.90;;;;;;5061926;28;20748;-81
2021/12/11 04:13:45;;;;;;;31.83;18.38;;;-0.80;99.90;;;;;;5061867;28;20221;-80
2021/12/11 04:16:13;;;;;;;26.63;15.82;;;-0.70;99.90;;;;;;5061940;28;20208;-80
2021/12/11 04:18:41;;;;;;;37.20;18.42;;;-0.60;99.90;;;;;;5061615;28;20684;-81
2021/12/11 04:21:09;;;;;;;30.58;15.65;;;-0.60;99.90;;;;;;5061755;28;20199;-81
2021/12/11 04:23:36;;;;;;;31.45;17.77;;;-0.50;99.90;;;;;;5060205;28;20735;-80
2021/12/11 04:26:03;;;;;;;29.60;15.32;;;-0.50;99.90;;;;;;5066737;28;20278;-79
2021/12/11 04:28:32;;;;;;;29.30;15.93;;;-0.50;99.90;;;;;;5070828;28;20240;-82
2021/12/11 04:31:05;;;;;;;38.00;17.17;;;-0.50;99.90;;;;;;5045066;28;20202;-80
2021/12/11 04:33:36;;;;;;;50.13;22.25;;;-0.40;99.90;;;;;;5055775;28;20248;-81
2021/12/11 04:36:05;;;;;;;46.15;20.73;;;-0.30;99.90;;;;;;5059838;28;20207;-78
2021/12/11 04:38:32;;;;;;;46.47;21.23;;;-0.30;99.90;;;;;;5059451;28;20287;-81
2021/12/11 04:41:00;;;;;;;44.08;19.75;;;-0.20;99.90;;;;;;5058656;28;20292;-79
2021/12/11 04:43:27;;;;;;;35.10;17.92;;;-0.10;99.90;;;;;;5058852;28;20222;-80
2021/12/11 04:45:59;;;;;;;47.85;22.05;;;0.00;99.90;;;;;;5059021;28;20261;-81
2021/12/11 04:48:34;;;;;;;43.42;20.75;;;0.10;99.90;;;;;;5060052;28;20945;-79
2021/12/11 04:51:12;;;;;;;48.28;21.65;;;0.20;99.90;;;;;;5057879;28;20218;-80
2021/12/11 04:53:52;;;;;;;46.92;23.73;;;0.20;99.90;;;;;;5060380;28;20708;-81
2021/12/11 04:56:56;;;;;;;43.78;24.30;;;0.20;99.90;;;;;;5067701;28;20288;-82
2021/12/11 04:59:45;;;;;;;46.20;21.40;;;0.30;99.90;;;;;;5076330;28;20176;-80
2021/12/11 05:02:43;;;;;;;63.75;26.10;;;0.30;99.90;;;;;;5066113;28;20721;-81
2021/12/11 05:05:17;;;;;;;52.88;23.63;;;0.30;99.90;;;;;;5060860;28;20227;-82
2021/12/11 05:07:59;;;;;;;61.45;27.77;;;0.40;99.90;;;;;;5041130;28;20223;-80
2021/12/11 05:10:37;;;;;;;59.47;26.15;;;0.40;99.90;;;;;;5046053;28;20225;-81
2021/12/11 05:13:05;;;;;;;47.83;22.13;;;0.40;99.90;;;;;;5052696;28;20224;-80
2021/12/11 05:15:35;;;;;;;49.72;22.08;;;0.40;99.90;;;;;;5062928;28;20224;-81
2021/12/11 05:18:05;;;;;;;55.33;23.52;;;0.50;99.90;;;;;;5062616;28;20205;-80
2021/12/11 05:20:34;;;;;;;62.00;26.45;;;0.50;99.90;;;;;;5060283;28;20200;-81
2021/12/11 05:23:03;;;;;;;50.42;24.83;;;0.40;99.90;;;;;;5060077;28;20231;-79
2021/12/11 05:25:30;;;;;;;58.22;24.33;;;0.50;99.90;;;;;;5059891;28;20200;-80
2021/12/11 05:27:58;;;;;;;60.10;25.23;;;0.50;99.90;;;;;;5058330;28;20208;-80
2021/12/11 05:30:28;;;;;;;50.45;26.13;;;0.40;99.90;;;;;;5055993;28;20208;-80
2021/12/11 05:32:58;;;;;;;72.80;28.30;;;0.50;99.90;;;;;;5039773;28;20309;-80
2021/12/11 05:35:26;;;;;;;47.03;22.05;;;0.50;99.90;;;;;;5056844;28;20216;-80
2021/12/11 05:37:53;;;;;;;51.05;24.63;;;0.60;99.90;;;;;;5060449;28;20212;-79
2021/12/11 05:40:24;;;;;;;55.90;25.50;;;0.60;99.90;;;;;;5057429;28;20216;-80
2021/12/11 05:42:51;;;;;;;65.53;28.98;;;0.60;99.90;;;;;;5058672;28;20233;-80
2021/12/11 05:45:18;;;;;;;49.97;22.58;;;0.60;99.90;;;;;;5057754;28;20209;-78
2021/12/11 05:47:45;;;;;;;59.53;31.08;;;0.70;99.90;;;;;;5058031;28;20719;-81
2021/12/11 05:50:17;;;;;;;85.13;28.23;;;0.80;99.90;;;;;;5058246;28;20205;-79
2021/12/11 05:52:44;;;;;;;70.82;28.25;;;0.70;99.90;;;;;;5058246;28;20313;-80
2021/12/11 05:55:15;;;;;;;57.05;27.50;;;0.70;99.90;;;;;;5043874;28;20382;-81
2021/12/11 05:57:50;;;;;;;74.22;34.95;;;0.70;99.90;;;;;;5053021;28;20452;-78
2021/12/11 06:00:19;;;;;;;53.85;25.48;;;0.70;99.90;;;;;;5053858;28;20222;-79
2021/12/11 06:02:46;;;;;;;55.40;28.88;;;0.90;99.90;;;;;;5053983;28;20221;-80
2021/12/11 06:05:13;;;;;;;59.33;26.13;;;1.00;99.90;;;;;;5054794;28;20200;-79
2021/12/11 06:07:43;;;;;;;69.65;30.67;;;0.90;99.90;;;;;;5054317;28;20459;-79
2021/12/11 06:10:13;;;;;;;57.13;25.35;;;0.90;99.90;;;;;;5054238;28;20270;-79
2021/12/11 06:12:41;;;;;;;67.30;28.48;;;0.80;99.90;;;;;;5053481;28;20229;-78
2021/12/11 06:15:10;;;;;;;71.53;28.17;;;0.90;99.90;;;;;;5053827;28;20243;-79
2021/12/11 06:17:41;;;;;;;84.07;31.27;;;0.90;99.90;;;;;;5053741;28;20203;-79
2021/12/11 06:20:10;;;;;;;21.63;12.10;;;0.90;99.90;;;;;;5052575;28;20210;-77
2021/12/11 06:22:37;;;;;;;51.90;27.67;;;4.70;99.90;;;;;;5052509;28;20476;-78
2021/12/11 06:25:08;;;;;;;65.93;30.37;;;4.30;99.90;;;;;;5053161;28;20448;-78
2021/12/11 06:27:35;;;;;;;48.07;23.50;;;2.90;99.90;;;;;;5052951;28;20957;-78
2021/12/11 06:30:03;;;;;;;67.17;26.83;;;2.50;99.90;;;;;;5052905;28;20546;-77
2021/12/11 06:32:31;;;;;;;54.60;26.33;;;1.90;99.90;;;;;;5052548;28;20467;-78
2021/12/11 06:35:02;;;;;;;64.33;26.23;;;1.80;99.90;;;;;;5055049;28;20603;-79
2021/12/11 06:37:29;;;;;;;55.28;26.83;;;1.70;99.90;;;;;;5052835;28;20456;-77
2021/12/11 06:39:56;;;;;;;57.93;24.40;;;1.60;99.90;;;;;;5051956;28;20205;-77
2021/12/11 06:42:23;;;;;;;59.97;24.80;;;1.60;99.90;;;;;;5050774;28;20480;-77
2021/12/11 06:44:49;;;;;;;64.28;28.38;;;1.50;99.90;;;;;;5052237;28;20456;-77
2021/12/11 06:47:17;;;;;;;59.93;26.67;;;1.60;99.90;;;;;;5051592;28;20231;-78
2021/12/11 06:49:45;;;;;;;63.30;27.45;;;1.60;99.90;;;;;;5051878;28;20500;-77
2021/12/11 06:52:16;;;;;;;57.70;26.77;;;1.70;99.90;;;;;;5051287;28;20747;-77
2021/12/11 06:54:43;;;;;;;80.53;30.27;;;1.70;99.90;;;;;;5051680;28;20492;-78
2021/12/11 06:57:10;;;;;;;63.97;26.73;;;1.60;99.90;;;;;;5051574;28;20462;-77
2021/12/11 06:59:37;;;;;;;75.60;28.93;;;1.60;99.90;;;;;;5053941;28;20534;-78
2021/12/11 07:02:05;;;;;;;62.30;28.60;;;1.60;99.90;;;;;;5051585;28;20558;-78
2021/12/11 07:04:33;;;;;;;76.80;30.88;;;1.60;99.90;;;;;;5062240;28;20518;-78
2021/12/11 07:07:01;;;;;;;75.23;28.87;;;1.60;99.90;;;;;;5062316;28;20207;-77
2021/12/11 07:09:29;;;;;;;73.30;29.60;;;1.70;99.90;;;;;;5052585;28;20430;-77
2021/12/11 07:11:58;;;;;;;70.00;28.60;;;1.70;99.90;;;;;;5051526;28;20994;-77
2021/12/11 07:14:30;;;;;;;73.77;27.80;;;1.70;99.90;;;;;;5051735;28;20458;-77
2021/12/11 07:16:58;;;;;;;79.10;30.40;;;1.60;99.90;;;;;;5052184;28;20539;-77
2021/12/11 07:19:25;;;;;;;79.03;31.38;;;1.60;99.90;;;;;;5052056;28;20204;-77
2021/12/11 07:21:54;;;;;;;80.18;30.90;;;1.60;99.90;;;;;;5051704;28;20232;-76
2021/12/11 07:24:30;;;;;;;90.30;32.17;;;1.60;99.90;;;;;;5051563;28;20239;-77
2021/12/11 07:26:59;;;;;;;81.93;28.33;;;1.60;99.90;;;;;;5052025;28;20205;-77
2021/12/11 07:29:26;;;;;;;84.03;33.05;;;1.60;99.90;;;;;;5051926;28;20209;-77
2021/12/11 07:31:54;;;;;;;89.90;30.52;;;1.60;99.90;;;;;;5051474;28;20243;-77
2021/12/11 07:34:21;;;;;;;80.05;30.17;;;1.70;99.90;;;;;;5052310;28;20267;-77
2021/12/11 07:36:50;;;;;;;76.47;31.47;;;1.70;99.90;;;;;;5051851;28;20226;-77
2021/12/11 07:39:18;;;;;;;88.37;33.17;;;1.70;99.90;;;;;;5053250;28;20462;-78
2021/12/11 07:41:48;;;;;;;98.87;36.90;;;1.60;99.90;;;;;;5069839;28;20490;-79
2021/12/11 07:44:15;;;;;;;101.97;34.47;;;1.70;99.90;;;;;;5060231;28;20500;-78
2021/12/11 07:46:42;;;;;;;80.45;31.42;;;1.60;99.90;;;;;;5057972;28;20443;-78
2021/12/11 07:49:11;;;;;;;84.23;31.30;;;1.70;99.90;;;;;;5048596;28;20584;-78
2021/12/11 07:51:42;;;;;;;79.13;34.30;;;1.80;99.90;;;;;;5045984;28;20460;-78
2021/12/11 07:54:10;;;;;;;84.40;32.33;;;1.80;99.90;;;;;;5044689;28;20444;-78
2021/12/11 07:56:38;;;;;;;92.28;34.45;;;1.80;99.90;;;;;;5047583;28;20471;-77
2021/12/11 07:59:09;;;;;;;94.80;34.40;;;1.80;99.90;;;;;;5045839;28;20210;-80
2021/12/11 08:01:38;;;;;;;81.70;37.42;;;1.80;99.90;;;;;;5049962;28;20455;-78
2021/12/11 08:04:08;;;;;;;82.00;35.40;;;1.70;99.90;;;;;;5051362;28;20649;-78
2021/12/11 08:06:36;;;;;;;93.27;34.03;;;1.80;99.90;;;;;;5046106;28;21129;-78
2021/12/11 08:09:05;;;;;;;71.07;32.80;;;1.90;99.90;;;;;;5056924;28;20527;-78
2021/12/11 08:11:32;;;;;;;75.47;33.17;;;2.00;99.90;;;;;;5047746;28;20447;-77
2021/12/11 08:14:00;;;;;;;67.93;30.20;;;2.00;99.90;;;;;;5058712;28;20446;-78
2021/12/11 08:16:34;;;;;;;101.53;35.60;;;2.00;99.90;;;;;;5054901;28;20488;-78
2021/12/11 08:19:04;;;;;;;76.10;34.63;;;1.90;99.90;;;;;;5051732;28;20496;-78
2021/12/11 08:21:31;;;;;;;78.22;32.10;;;1.90;99.90;;;;;;5060897;28;20452;-78
2021/12/11 08:24:04;;;;;;;80.27;31.80;;;2.00;99.90;;;;;;5049061;28;20587;-78
2021/12/11 08:26:31;;;;;;;88.87;33.30;;;1.90;99.90;;;;;;5068389;28;20439;-78
2021/12/11 08:28:58;;;;;;;82.45;35.80;;;1.90;99.90;;;;;;5069961;28;20538;-78
2021/12/11 08:31:26;;;;;;;77.63;34.13;;;2.10;99.90;;;;;;5061009;28;20283;-78
2021/12/11 08:33:55;;;;;;;79.70;35.23;;;2.10;99.90;;;;;;5054750;28;20209;-78
2021/12/11 08:36:22;;;;;;;71.53;33.70;;;2.10;99.90;;;;;;5045668;28;20480;-78
2021/12/11 08:38:50;;;;;;;71.33;32.87;;;2.10;99.90;;;;;;5041248;28;20839;-77
2021/12/11 08:41:22;;;;;;;89.70;36.13;;;2.10;99.90;;;;;;5049443;28;20444;-78
2021/12/11 08:43:56;;;;;;;77.50;32.97;;;2.20;99.90;;;;;;5056212;28;20508;-78
2021/12/11 08:46:27;;;;;;;77.33;34.27;;;2.30;99.90;;;;;;5053846;28;20198;-78
2021/12/11 08:48:57;;;;;;;84.90;35.17;;;2.40;99.90;;;;;;5055439;28;20459;-78
2021/12/11 08:51:27;;;;;;;69.30;33.23;;;2.40;99.90;;;;;;5049598;28;20986;-77
2021/12/11 08:53:55;;;;;;;65.13;31.17;;;2.50;99.90;;;;;;5055580;28;20448;-79
2021/12/11 08:56:23;;;;;;;69.37;31.93;;;2.60;99.90;;;;;;5056302;28;20903;-79
2021/12/11 08:58:52;;;;;;;68.80;33.30;;;2.70;99.90;;;;;;5055278;28;20462;-78
2021/12/11 09:01:26;;;;;;;64.23;30.07;;;2.70;99.90;;;;;;5056593;28;20454;-79
2021/12/11 09:03:58;;;;;;;56.53;28.80;;;2.70;99.90;;;;;;5058567;28;20484;-80
2021/12/11 09:06:31;;;;;;;53.30;27.53;;;2.80;99.90;;;;;;5058282;28;20440;-80
2021/12/11 09:09:04;;;;;;;54.87;26.70;;;2.70;99.90;;;;;;5060761;28;20491;-81
2021/12/11 09:11:34;;;;;;;59.25;28.30;;;2.70;99.90;;;;;;5057727;28;20459;-81
2021/12/11 09:14:05;;;;;;;67.00;30.03;;;2.80;99.90;;;;;;5057345;28;20215;-80
2021/12/11 09:16:35;;;;;;;53.70;26.87;;;2.90;99.90;;;;;;5058018;28;21109;-80
2021/12/11 09:19:09;;;;;;;52.20;26.10;;;3.10;99.90;;;;;;5057689;28;20458;-81
2021/12/11 09:21:43;;;;;;;57.13;28.33;;;3.20;99.90;;;;;;5055988;28;20456;-81
2021/12/11 09:24:13;;;;;;;62.83;30.60;;;3.30;99.90;;;;;;5055275;28;20971;-81
2021/12/11 09:26:44;;;;;;;52.37;27.80;;;3.30;99.90;;;;;;5054462;28;20452;-81
2021/12/11 09:29:17;;;;;;;46.57;25.07;;;3.50;99.90;;;;;;5058148;28;20456;-81
2021/12/11 09:31:52;;;;;;;50.60;25.13;;;3.70;99.90;;;;;;5057329;28;20472;-80
2021/12/11 09:34:23;;;;;;;45.77;24.53;;;3.70;99.90;;;;;;5057092;28;20535;-81
2021/12/11 09:36:56;;;;;;;49.97;27.33;;;3.90;99.90;;;;;;5056398;28;20490;-80
2021/12/11 09:39:29;;;;;;;52.20;25.20;;;4.00;99.90;;;;;;5058229;28;20509;-80
2021/12/11 09:41:55;;;;;;;53.80;28.37;;;4.00;99.90;;;;;;5056918;28;21019;-80
2021/12/11 09:44:29;;;;;;;57.63;29.80;;;4.00;99.90;;;;;;5063350;28;20452;-81
2021/12/11 09:47:00;;;;;;;42.67;23.83;;;4.00;99.90;;;;;;5064471;28;21003;-81
2021/12/11 09:49:32;;;;;;;49.53;24.70;;;4.10;99.90;;;;;;5056133;28;20453;-80
2021/12/11 09:52:13;;;;;;;43.47;24.70;;;4.20;99.90;;;;;;5052329;28;20482;-80
2021/12/11 09:54:40;;;;;;;46.13;22.80;;;4.20;99.90;;;;;;5047434;28;20449;-80
2021/12/11 09:57:10;;;;;;;45.00;24.13;;;4.20;99.90;;;;;;5053920;28;20486;-80
2021/12/11 09:59:40;;;;;;;54.23;24.67;;;4.30;99.90;;;;;;5048046;28;20543;-82
2021/12/11 10:02:11;;;;;;;53.67;26.80;;;4.40;99.90;;;;;;5047351;28;20907;-79
2021/12/11 10:04:46;;;;;;;48.47;24.27;;;4.30;99.90;;;;;;5046827;28;20476;-80
2021/12/11 10:07:29;;;;;;;45.97;24.50;;;4.30;99.90;;;;;;5047609;28;20449;-79
2021/12/11 10:10:06;;;;;;;56.30;25.10;;;4.50;99.90;;;;;;5051444;28;20459;-80
2021/12/11 10:12:36;;;;;;;53.70;25.57;;;4.50;99.90;;;;;;5051704;28;20498;-80
2021/12/11 10:15:13;;;;;;;61.80;26.73;;;4.50;99.90;;;;;;5051380;28;20524;-82
2021/12/11 10:17:44;;;;;;;51.60;26.80;;;4.50;99.90;;;;;;5051665;28;20516;-82
2021/12/11 10:20:18;;;;;;;49.20;26.77;;;4.50;99.90;;;;;;5050332;28;20960;-80
2021/12/11 10:22:45;;;;;;;52.50;25.93;;;4.50;99.90;;;;;;5046937;28;20474;-82
2021/12/11 10:25:17;;;;;;;50.27;25.90;;;4.50;99.90;;;;;;5055551;28;20444;-80
2021/12/11 10:27:45;;;;;;;50.30;25.77;;;4.50;99.90;;;;;;5064918;28;20442;-78
2021/12/11 10:30:19;;;;;;;53.00;25.47;;;4.50;99.90;;;;;;5077999;28;20439;-77
2021/12/11 10:32:46;;;;;;;48.03;24.80;;;4.50;99.90;;;;;;5065636;28;20642;-80
2021/12/11 10:35:16;;;;;;;53.30;24.83;;;4.60;99.90;;;;;;5060080;28;20447;-80
2021/12/11 10:37:44;;;;;;;49.80;26.63;;;4.70;99.90;;;;;;5056497;28;20471;-80
2021/12/11 10:40:19;;;;;;;51.50;25.40;;;4.70;99.90;;;;;;5053236;28;20575;-80
2021/12/11 10:42:52;;;;;;;48.67;25.67;;;4.80;99.90;;;;;;5072839;28;20565;-80
2021/12/11 10:45:21;;;;;;;52.03;26.30;;;4.90;99.90;;;;;;5047516;28;20450;-80
2021/12/11 10:47:53;;;;;;;47.30;25.57;;;4.90;99.90;;;;;;5056191;28;21126;-79
2021/12/11 10:50:33;;;;;;;50.03;25.63;;;4.80;99.90;;;;;;5055567;28;20458;-80
2021/12/11 10:53:01;;;;;;;45.90;22.90;;;4.90;99.90;;;;;;5042672;28;21000;-80
2021/12/11 10:55:32;;;;;;;45.07;24.87;;;4.90;99.90;;;;;;5048901;28;20832;-80
2021/12/11 10:58:02;;;;;;;46.23;24.10;;;5.00;99.90;;;;;;5051943;28;20486;-80
2021/12/11 11:00:35;;;;;;;46.20;24.23;;;5.00;99.90;;;;;;5052107;28;20456;-80
2021/12/11 11:03:03;;;;;;;45.73;22.43;;;4.90;99.90;;;;;;5045348;28;20559;-80
2021/12/11 11:05:31;;;;;;;56.13;23.83;;;4.90;99.90;;;;;;5047819;28;20967;-80
2021/12/11 11:07:58;;;;;;;45.63;22.30;;;4.90;99.90;;;;;;5047898;28;20456;-79
2021/12/11 11:10:28;;;;;;;42.27;21.13;;;5.00;99.90;;;;;;5041999;28;20450;-80
2021/12/11 11:12:57;;;;;;;51.73;25.73;;;5.00;99.90;;;;;;5046575;28;20853;-80
2021/12/11 11:15:25;;;;;;;40.87;21.40;;;5.00;99.90;;;;;;5047142;28;20446;-81
2021/12/11 11:17:54;;;;;;;40.07;22.57;;;4.90;99.90;;;;;;5044995;28;20535;-79
2021/12/11 11:20:27;;;;;;;34.50;18.50;;;4.90;99.90;;;;;;5042927;28;20459;-80
2021/12/11 11:22:54;;;;;;;37.57;19.10;;;5.10;99.90;;;;;;5049024;28;20871;-80
2021/12/11 11:25:25;;;;;;;32.50;17.20;;;5.00;99.90;;;;;;5050908;28;20454;-80
2021/12/11 11:27:57;;;;;;;41.37;19.33;;;5.10;99.90;;;;;;5056935;28;20453;-78
2021/12/11 11:30:28;;;;;;;41.47;22.10;;;4.90;99.90;;;;;;5060119;28;20458;-80
2021/12/11 11:32:57;;;;;;;37.97;20.33;;;4.90;99.90;;;;;;5059770;28;20565;-80
2021/12/11 11:35:28;;;;;;;36.67;19.20;;;4.90;99.90;;;;;;5055107;28;20466;-80
2021/12/11 11:37:58;;;;;;;34.50;18.33;;;4.90;99.90;;;;;;5058470;28;20860;-80
2021/12/11 11:40:27;;;;;;;40.47;22.23;;;5.00;99.90;;;;;;5059195;28;20466;-80
2021/12/11 11:42:57;;;;;;;38.10;18.57;;;4.90;99.90;;;;;;5058752;28;20474;-80
2021/12/11 11:45:28;;;;;;;34.07;18.73;;;4.80;99.90;;;;;;5049279;28;20938;-80
2021/12/11 11:47:57;;;;;;;36.10;19.90;;;4.90;99.90;;;;;;5049460;28;20755;-79
2021/12/11 11:50:28;;;;;;;37.50;19.90;;;4.90;99.90;;;;;;5038192;28;20451;-81
2021/12/11 11:52:54;;;;;;;35.33;19.67;;;5.00;99.90;;;;;;5040739;28;20530;-80
2021/12/11 11:55:26;;;;;;;36.73;18.40;;;5.10;99.90;;;;;;5039825;28;20478;-81
2021/12/11 11:57:56;;;;;;;31.40;17.37;;;5.10;99.90;;;;;;5040197;28;20581;-81
2021/12/11 12:00:27;;;;;;;31.90;18.30;;;5.20;99.90;;;;;;5056662;28;20553;-81
2021/12/11 12:02:56;;;;;;;33.17;17.23;;;5.20;99.90;;;;;;5060465;28;21044;-81
2021/12/11 12:05:24;;;;;;;28.07;16.17;;;5.20;99.90;;;;;;5060524;28;20448;-81
2021/12/11 12:07:51;;;;;;;31.93;17.57;;;5.30;99.90;;;;;;5056586;28;20453;-81
2021/12/11 12:10:22;;;;;;;37.53;19.83;;;5.20;99.90;;;;;;5051110;28;20448;-81
2021/12/11 12:12:50;;;;;;;36.80;18.43;;;5.10;99.90;;;;;;5056817;28;20544;-81
2021/12/11 12:15:21;;;;;;;35.43;18.40;;;4.90;99.90;;;;;;5059121;28;20503;-81
2021/12/11 12:17:50;;;;;;;30.30;18.23;;;5.00;99.90;;;;;;5059027;28;21045;-81
2021/12/11 12:20:20;;;;;;;34.70;18.80;;;5.00;99.90;;;;;;5051648;28;20453;-81
2021/12/11 12:22:50;;;;;;;37.87;19.67;;;5.00;99.90;;;;;;5059703;28;20548;-81
2021/12/11 12:25:18;;;;;;;39.07;18.13;;;5.10;99.90;;;;;;5057098;28;20671;-81
2021/12/11 12:27:46;;;;;;;31.77;18.13;;;5.10;99.90;;;;;;5068596;28;20511;-79
2021/12/11 12:30:18;;;;;;;33.97;17.70;;;5.10;99.90;;;;;;5063050;28;20452;-80
2021/12/11 12:32:47;;;;;;;34.80;18.97;;;5.30;99.90;;;;;;5058231;28;20474;-80
2021/12/11 12:35:18;;;;;;;32.43;17.47;;;5.30;99.90;;;;;;5065360;28;20994;-80
2021/12/11 12:37:46;;;;;;;31.90;17.83;;;5.40;99.90;;;;;;5064251;28;20567;-82
2021/12/11 12:40:22;;;;;;;34.47;18.70;;;5.40;99.90;;;;;;5060664;28;20463;-82
2021/12/11 12:42:55;;;;;;;35.87;18.93;;;5.30;99.90;;;;;;5063734;28;20484;-82
2021/12/11 12:45:26;;;;;;;34.77;18.57;;;5.30;99.90;;;;;;5059872;28;20455;-82
2021/12/11 12:47:59;;;;;;;29.90;16.40;;;5.40;99.90;;;;;;5059225;28;20975;-81
2021/12/11 12:50:30;;;;;;;34.33;18.23;;;5.50;99.90;;;;;;5056794;28;20829;-82
2021/12/11 12:52:59;;;;;;;35.70;18.50;;;5.40;99.90;;;;;;5066802;28;20512;-82